sensor_id;sensor_type;location;lat;lon;timestamp;P1;durP1;ratioP1;P2;durP2;ratioP2
29712;SDS011;16623;53.632;10.016;2023-06-14T00:01:37;8.45;;;3.30;;
29712;SDS011;16623;53.632;10.016;2023-06-14T00:04:03;11.68;;;3.53;;
29712;SDS011;16623;53.632;10.016;2023-06-14T00:06:30;9.98;;;3.72;;
29712;SDS011;16623;53.632;10.016;2023-06-14T00:08:56;9.13;;;3.45;;
29712;SDS011;16623;53.632;10.016;2023-06-14T00:11:22;8.05;;;3.58;;
29712;SDS011;16623;53.632;10.016;2023-06-14T00:13:47;9.93;;;3.30;;
29712;SDS011;16623;53.632;10.016;2023-06-14T00:16:13;9.10;;;3.33;;
29712;SDS011;16623;53.632;10.016;2023-06-14T00:18:38;9.27;;;3.28;;
29712;SDS011;16623;53.632;10.016;2023-06-14T00:21:04;6.88;;;3.42;;
29712;SDS011;16623;53.632;10.016;2023-06-14T00:23:30;16.77;;;3.35;;
29712;SDS011;16623;53.632;10.016;2023-06-14T00:25:55;5.00;;;3.33;;
29712;SDS011;16623;53.632;10.016;2023-06-14T00:28:21;11.80;;;3.97;;
29712;SDS011;16623;53.632;10.016;2023-06-14T00:30:47;12.93;;;3.70;;
29712;SDS011;16623;53.632;10.016;2023-06-14T00:33:12;12.05;;;3.40;;
29712;SDS011;16623;53.632;10.016;2023-06-14T00:35:38;11.88;;;3.83;;
29712;SDS011;16623;53.632;10.016;2023-06-14T00:38:03;6.47;;;3.55;;
29712;SDS011;16623;53.632;10.016;2023-06-14T00:40:29;7.18;;;3.60;;
29712;SDS011;16623;53.632;10.016;2023-06-14T00:42:55;8.55;;;4.63;;
29712;SDS011;16623;53.632;10.016;2023-06-14T00:45:20;8.35;;;3.33;;
29712;SDS011;16623;53.632;10.016;2023-06-14T00:47:46;8.07;;;4.22;;
29712;SDS011;16623;53.632;10.016;2023-06-14T00:50:16;6.00;;;3.53;;
29712;SDS011;16623;53.632;10.016;2023-06-14T00:52:41;11.00;;;3.80;;
29712;SDS011;16623;53.632;10.016;2023-06-14T00:55:07;8.30;;;3.53;;
29712;SDS011;16623;53.632;10.016;2023-06-14T00:57:33;6.88;;;3.90;;
29712;SDS011;16623;53.632;10.016;2023-06-14T01:00:02;9.50;;;3.85;;
29712;SDS011;16623;53.632;10.016;2023-06-14T01:02:29;6.95;;;3.72;;
29712;SDS011;16623;53.632;10.016;2023-06-14T01:04:55;10.43;;;3.40;;
29712;SDS011;16623;53.632;10.016;2023-06-14T01:07:28;13.57;;;4.18;;
29712;SDS011;16623;53.632;10.016;2023-06-14T01:13:21;6.03;;;3.20;;
29712;SDS011;16623;53.632;10.016;2023-06-14T01:15:54;4.03;;;3.15;;
29712;SDS011;16623;53.632;10.016;2023-06-14T01:18:21;8.45;;;3.78;;
29712;SDS011;16623;53.632;10.016;2023-06-14T01:20:49;8.02;;;3.28;;
29712;SDS011;16623;53.632;10.016;2023-06-14T01:23:16;6.95;;;3.15;;
29712;SDS011;16623;53.632;10.016;2023-06-14T01:25:44;3.90;;;2.75;;
29712;SDS011;16623;53.632;10.016;2023-06-14T01:28:09;6.10;;;3.45;;
29712;SDS011;16623;53.632;10.016;2023-06-14T01:30:36;5.95;;;3.63;;
29712;SDS011;16623;53.632;10.016;2023-06-14T01:33:03;7.43;;;3.25;;
29712;SDS011;16623;53.632;10.016;2023-06-14T01:35:30;29.40;;;4.40;;
29712;SDS011;16623;53.632;10.016;2023-06-14T01:37:56;8.68;;;3.25;;
29712;SDS011;16623;53.632;10.016;2023-06-14T01:40:23;10.23;;;3.22;;
29712;SDS011;16623;53.632;10.016;2023-06-14T01:42:50;8.73;;;4.50;;
29712;SDS011;16623;53.632;10.016;2023-06-14T01:45:16;8.13;;;3.05;;
29712;SDS011;16623;53.632;10.016;2023-06-14T01:47:44;12.45;;;3.70;;
29712;SDS011;16623;53.632;10.016;2023-06-14T01:50:10;8.90;;;3.80;;
29712;SDS011;16623;53.632;10.016;2023-06-14T01:52:37;9.43;;;3.60;;
29712;SDS011;16623;53.632;10.016;2023-06-14T01:55:03;6.93;;;3.45;;
29712;SDS011;16623;53.632;10.016;2023-06-14T01:57:30;7.13;;;3.72;;
29712;SDS011;16623;53.632;10.016;2023-06-14T01:59:55;10.80;;;3.60;;
29712;SDS011;16623;53.632;10.016;2023-06-14T02:02:21;7.82;;;4.05;;
29712;SDS011;16623;53.632;10.016;2023-06-14T02:07:43;8.98;;;3.55;;
29712;SDS011;16623;53.632;10.016;2023-06-14T02:10:09;6.00;;;3.03;;
29712;SDS011;16623;53.632;10.016;2023-06-14T02:12:35;9.85;;;3.42;;
29712;SDS011;16623;53.632;10.016;2023-06-14T02:15:00;6.97;;;3.60;;
29712;SDS011;16623;53.632;10.016;2023-06-14T02:17:26;5.75;;;3.40;;
29712;SDS011;16623;53.632;10.016;2023-06-14T02:19:51;5.20;;;3.38;;
29712;SDS011;16623;53.632;10.016;2023-06-14T02:22:17;8.80;;;3.55;;
29712;SDS011;16623;53.632;10.016;2023-06-14T02:24:43;7.22;;;3.70;;
29712;SDS011;16623;53.632;10.016;2023-06-14T02:27:08;10.57;;;3.65;;
29712;SDS011;16623;53.632;10.016;2023-06-14T02:29:36;6.82;;;3.53;;
29712;SDS011;16623;53.632;10.016;2023-06-14T02:32:02;12.52;;;4.30;;
29712;SDS011;16623;53.632;10.016;2023-06-14T02:34:32;8.93;;;3.88;;
29712;SDS011;16623;53.632;10.016;2023-06-14T02:36:58;6.82;;;4.03;;
29712;SDS011;16623;53.632;10.016;2023-06-14T02:39:24;6.53;;;3.58;;
29712;SDS011;16623;53.632;10.016;2023-06-14T02:41:50;9.55;;;4.15;;
29712;SDS011;16623;53.632;10.016;2023-06-14T02:44:17;10.68;;;4.50;;
29712;SDS011;16623;53.632;10.016;2023-06-14T02:46:43;10.60;;;4.13;;
29712;SDS011;16623;53.632;10.016;2023-06-14T02:49:10;12.57;;;4.72;;
29712;SDS011;16623;53.632;10.016;2023-06-14T02:51:38;11.65;;;4.25;;
29712;SDS011;16623;53.632;10.016;2023-06-14T02:54:05;8.32;;;4.38;;
29712;SDS011;16623;53.632;10.016;2023-06-14T02:56:30;10.68;;;4.20;;
29712;SDS011;16623;53.632;10.016;2023-06-14T02:58:59;10.32;;;4.28;;
29712;SDS011;16623;53.632;10.016;2023-06-14T03:01:25;9.45;;;4.75;;
29712;SDS011;16623;53.632;10.016;2023-06-14T03:03:59;9.55;;;4.22;;
29712;SDS011;16623;53.632;10.016;2023-06-14T03:06:27;7.22;;;4.40;;
29712;SDS011;16623;53.632;10.016;2023-06-14T03:08:54;5.93;;;3.90;;
29712;SDS011;16623;53.632;10.016;2023-06-14T03:11:24;8.65;;;3.97;;
29712;SDS011;16623;53.632;10.016;2023-06-14T03:13:50;6.80;;;3.95;;
29712;SDS011;16623;53.632;10.016;2023-06-14T03:16:16;9.15;;;4.78;;
29712;SDS011;16623;53.632;10.016;2023-06-14T03:18:44;11.88;;;4.30;;
29712;SDS011;16623;53.632;10.016;2023-06-14T03:21:10;8.30;;;4.18;;
29712;SDS011;16623;53.632;10.016;2023-06-14T03:23:36;11.65;;;4.78;;
29712;SDS011;16623;53.632;10.016;2023-06-14T03:26:02;15.00;;;4.32;;
29712;SDS011;16623;53.632;10.016;2023-06-14T03:28:27;9.68;;;4.63;;
29712;SDS011;16623;53.632;10.016;2023-06-14T03:30:53;11.85;;;5.30;;
29712;SDS011;16623;53.632;10.016;2023-06-14T03:33:18;10.68;;;4.45;;
29712;SDS011;16623;53.632;10.016;2023-06-14T03:35:44;13.40;;;4.40;;
29712;SDS011;16623;53.632;10.016;2023-06-14T03:38:10;14.02;;;4.50;;
29712;SDS011;16623;53.632;10.016;2023-06-14T03:40:35;12.90;;;4.88;;
29712;SDS011;16623;53.632;10.016;2023-06-14T03:43:01;12.98;;;4.80;;
29712;SDS011;16623;53.632;10.016;2023-06-14T03:45:27;10.93;;;5.10;;
29712;SDS011;16623;53.632;10.016;2023-06-14T03:47:52;6.97;;;4.53;;
29712;SDS011;16623;53.632;10.016;2023-06-14T03:50:19;8.38;;;4.25;;
29712;SDS011;16623;53.632;10.016;2023-06-14T03:52:45;10.75;;;4.45;;
29712;SDS011;16623;53.632;10.016;2023-06-14T03:55:13;7.72;;;3.60;;
29712;SDS011;16623;53.632;10.016;2023-06-14T03:57:41;8.48;;;3.55;;
29712;SDS011;16623;53.632;10.016;2023-06-14T04:00:07;5.88;;;3.72;;
29712;SDS011;16623;53.632;10.016;2023-06-14T04:02:34;10.43;;;3.70;;
29712;SDS011;16623;53.632;10.016;2023-06-14T04:05:01;11.93;;;3.75;;
29712;SDS011;16623;53.632;10.016;2023-06-14T04:07:27;9.93;;;3.75;;
29712;SDS011;16623;53.632;10.016;2023-06-14T04:09:53;6.13;;;3.42;;
29712;SDS011;16623;53.632;10.016;2023-06-14T04:12:19;8.52;;;3.47;;
29712;SDS011;16623;53.632;10.016;2023-06-14T04:14:45;5.25;;;3.70;;
29712;SDS011;16623;53.632;10.016;2023-06-14T04:17:11;5.75;;;3.50;;
29712;SDS011;16623;53.632;10.016;2023-06-14T04:19:37;7.10;;;3.67;;
29712;SDS011;16623;53.632;10.016;2023-06-14T04:22:02;11.82;;;3.88;;
29712;SDS011;16623;53.632;10.016;2023-06-14T04:24:28;7.57;;;3.67;;
29712;SDS011;16623;53.632;10.016;2023-06-14T04:26:56;10.52;;;3.90;;
29712;SDS011;16623;53.632;10.016;2023-06-14T04:29:26;7.82;;;3.65;;
29712;SDS011;16623;53.632;10.016;2023-06-14T04:31:54;9.65;;;3.78;;
29712;SDS011;16623;53.632;10.016;2023-06-14T04:34:25;9.90;;;3.70;;
29712;SDS011;16623;53.632;10.016;2023-06-14T04:36:54;8.35;;;4.03;;
29712;SDS011;16623;53.632;10.016;2023-06-14T04:39:21;7.93;;;4.00;;
29712;SDS011;16623;53.632;10.016;2023-06-14T04:41:47;7.95;;;4.10;;
29712;SDS011;16623;53.632;10.016;2023-06-14T04:44:16;8.13;;;4.18;;
29712;SDS011;16623;53.632;10.016;2023-06-14T04:46:44;6.78;;;3.78;;
29712;SDS011;16623;53.632;10.016;2023-06-14T04:49:13;9.98;;;3.70;;
29712;SDS011;16623;53.632;10.016;2023-06-14T04:51:42;6.90;;;3.45;;
29712;SDS011;16623;53.632;10.016;2023-06-14T04:54:09;9.35;;;3.33;;
29712;SDS011;16623;53.632;10.016;2023-06-14T04:56:39;9.80;;;3.55;;
29712;SDS011;16623;53.632;10.016;2023-06-14T04:59:05;7.00;;;3.55;;
29712;SDS011;16623;53.632;10.016;2023-06-14T05:01:31;14.18;;;3.60;;
29712;SDS011;16623;53.632;10.016;2023-06-14T05:03:58;6.28;;;3.22;;
29712;SDS011;16623;53.632;10.016;2023-06-14T05:06:24;10.45;;;4.30;;
29712;SDS011;16623;53.632;10.016;2023-06-14T05:08:49;10.15;;;3.72;;
29712;SDS011;16623;53.632;10.016;2023-06-14T05:11:15;10.68;;;3.67;;
29712;SDS011;16623;53.632;10.016;2023-06-14T05:13:42;10.85;;;3.65;;
29712;SDS011;16623;53.632;10.016;2023-06-14T05:16:08;8.93;;;3.70;;
29712;SDS011;16623;53.632;10.016;2023-06-14T05:18:34;8.95;;;3.70;;
29712;SDS011;16623;53.632;10.016;2023-06-14T05:21:00;5.40;;;3.67;;
29712;SDS011;16623;53.632;10.016;2023-06-14T05:23:26;16.92;;;3.97;;
29712;SDS011;16623;53.632;10.016;2023-06-14T05:25:51;9.00;;;3.55;;
29712;SDS011;16623;53.632;10.016;2023-06-14T05:28:18;9.25;;;3.78;;
29712;SDS011;16623;53.632;10.016;2023-06-14T05:30:43;9.05;;;3.30;;
29712;SDS011;16623;53.632;10.016;2023-06-14T05:33:09;10.68;;;4.15;;
29712;SDS011;16623;53.632;10.016;2023-06-14T05:35:35;11.90;;;3.90;;
29712;SDS011;16623;53.632;10.016;2023-06-14T05:38:02;6.03;;;3.90;;
29712;SDS011;16623;53.632;10.016;2023-06-14T05:40:28;8.32;;;3.97;;
29712;SDS011;16623;53.632;10.016;2023-06-14T05:42:54;10.27;;;3.58;;
29712;SDS011;16623;53.632;10.016;2023-06-14T05:45:19;11.52;;;4.60;;
29712;SDS011;16623;53.632;10.016;2023-06-14T05:47:45;7.50;;;3.90;;
29712;SDS011;16623;53.632;10.016;2023-06-14T05:50:10;14.55;;;3.60;;
29712;SDS011;16623;53.632;10.016;2023-06-14T05:52:36;11.25;;;3.80;;
29712;SDS011;16623;53.632;10.016;2023-06-14T05:55:02;7.82;;;3.28;;
29712;SDS011;16623;53.632;10.016;2023-06-14T05:57:28;7.93;;;3.60;;
29712;SDS011;16623;53.632;10.016;2023-06-14T05:59:54;8.13;;;3.55;;
29712;SDS011;16623;53.632;10.016;2023-06-14T06:02:20;8.80;;;3.75;;
29712;SDS011;16623;53.632;10.016;2023-06-14T06:04:45;14.05;;;4.40;;
29712;SDS011;16623;53.632;10.016;2023-06-14T06:07:11;9.23;;;4.03;;
29712;SDS011;16623;53.632;10.016;2023-06-14T06:09:36;6.03;;;3.42;;
29712;SDS011;16623;53.632;10.016;2023-06-14T06:12:02;7.30;;;3.67;;
29712;SDS011;16623;53.632;10.016;2023-06-14T06:14:31;5.97;;;3.28;;
29712;SDS011;16623;53.632;10.016;2023-06-14T06:16:56;9.25;;;3.92;;
29712;SDS011;16623;53.632;10.016;2023-06-14T06:19:23;5.32;;;3.33;;
29712;SDS011;16623;53.632;10.016;2023-06-14T06:21:49;9.85;;;3.70;;
29712;SDS011;16623;53.632;10.016;2023-06-14T06:24:15;9.13;;;3.50;;
29712;SDS011;16623;53.632;10.016;2023-06-14T06:26:41;15.23;;;3.55;;
29712;SDS011;16623;53.632;10.016;2023-06-14T06:29:08;4.90;;;3.00;;
29712;SDS011;16623;53.632;10.016;2023-06-14T06:31:33;8.50;;;3.40;;
29712;SDS011;16623;53.632;10.016;2023-06-14T06:33:59;6.55;;;2.83;;
29712;SDS011;16623;53.632;10.016;2023-06-14T06:36:25;5.82;;;2.95;;
29712;SDS011;16623;53.632;10.016;2023-06-14T06:38:50;5.15;;;2.80;;
29712;SDS011;16623;53.632;10.016;2023-06-14T06:41:16;9.70;;;2.83;;
29712;SDS011;16623;53.632;10.016;2023-06-14T06:43:41;8.25;;;2.53;;
29712;SDS011;16623;53.632;10.016;2023-06-14T06:46:07;8.77;;;2.90;;
29712;SDS011;16623;53.632;10.016;2023-06-14T06:48:33;4.68;;;2.47;;
29712;SDS011;16623;53.632;10.016;2023-06-14T06:50:58;4.78;;;2.65;;
29712;SDS011;16623;53.632;10.016;2023-06-14T06:53:24;7.85;;;3.22;;
29712;SDS011;16623;53.632;10.016;2023-06-14T06:55:50;5.07;;;2.47;;
29712;SDS011;16623;53.632;10.016;2023-06-14T06:58:15;8.77;;;2.72;;
29712;SDS011;16623;53.632;10.016;2023-06-14T07:00:41;6.50;;;2.20;;
29712;SDS011;16623;53.632;10.016;2023-06-14T07:03:08;4.32;;;2.63;;
29712;SDS011;16623;53.632;10.016;2023-06-14T07:05:34;5.47;;;2.70;;
29712;SDS011;16623;53.632;10.016;2023-06-14T07:07:59;7.45;;;3.03;;
29712;SDS011;16623;53.632;10.016;2023-06-14T07:10:25;4.70;;;2.70;;
29712;SDS011;16623;53.632;10.016;2023-06-14T07:12:50;4.32;;;2.33;;
29712;SDS011;16623;53.632;10.016;2023-06-14T07:15:16;5.68;;;2.97;;
29712;SDS011;16623;53.632;10.016;2023-06-14T07:17:43;7.60;;;2.53;;
29712;SDS011;16623;53.632;10.016;2023-06-14T07:20:09;5.45;;;2.53;;
29712;SDS011;16623;53.632;10.016;2023-06-14T07:22:39;4.32;;;2.25;;
29712;SDS011;16623;53.632;10.016;2023-06-14T07:25:09;4.85;;;2.17;;
29712;SDS011;16623;53.632;10.016;2023-06-14T07:27:38;3.35;;;2.28;;
29712;SDS011;16623;53.632;10.016;2023-06-14T07:30:05;2.92;;;2.22;;
29712;SDS011;16623;53.632;10.016;2023-06-14T07:32:31;4.65;;;2.33;;
29712;SDS011;16623;53.632;10.016;2023-06-14T07:34:57;7.20;;;2.15;;
29712;SDS011;16623;53.632;10.016;2023-06-14T07:37:22;6.57;;;2.67;;
29712;SDS011;16623;53.632;10.016;2023-06-14T07:39:48;4.00;;;2.38;;
29712;SDS011;16623;53.632;10.016;2023-06-14T07:42:14;5.53;;;2.20;;
29712;SDS011;16623;53.632;10.016;2023-06-14T07:44:40;6.65;;;2.47;;
29712;SDS011;16623;53.632;10.016;2023-06-14T07:47:05;6.90;;;2.28;;
29712;SDS011;16623;53.632;10.016;2023-06-14T07:49:31;3.17;;;2.20;;
29712;SDS011;16623;53.632;10.016;2023-06-14T07:51:56;2.95;;;2.03;;
29712;SDS011;16623;53.632;10.016;2023-06-14T07:54:23;5.28;;;2.17;;
29712;SDS011;16623;53.632;10.016;2023-06-14T07:56:51;7.47;;;2.30;;
29712;SDS011;16623;53.632;10.016;2023-06-14T07:59:17;4.55;;;2.10;;
29712;SDS011;16623;53.632;10.016;2023-06-14T08:01:43;5.75;;;2.60;;
29712;SDS011;16623;53.632;10.016;2023-06-14T08:04:16;5.53;;;2.55;;
29712;SDS011;16623;53.632;10.016;2023-06-14T08:06:41;6.13;;;2.45;;
29712;SDS011;16623;53.632;10.016;2023-06-14T08:09:10;4.68;;;2.60;;
29712;SDS011;16623;53.632;10.016;2023-06-14T08:11:37;4.65;;;2.13;;
29712;SDS011;16623;53.632;10.016;2023-06-14T08:14:03;4.10;;;2.75;;
29712;SDS011;16623;53.632;10.016;2023-06-14T08:16:28;6.93;;;2.22;;
29712;SDS011;16623;53.632;10.016;2023-06-14T08:18:54;7.95;;;2.80;;
29712;SDS011;16623;53.632;10.016;2023-06-14T08:21:23;7.93;;;2.45;;
29712;SDS011;16623;53.632;10.016;2023-06-14T08:23:53;5.50;;;2.83;;
29712;SDS011;16623;53.632;10.016;2023-06-14T08:26:19;8.18;;;2.63;;
29712;SDS011;16623;53.632;10.016;2023-06-14T08:28:46;4.50;;;2.40;;
29712;SDS011;16623;53.632;10.016;2023-06-14T08:31:11;3.58;;;2.20;;
29712;SDS011;16623;53.632;10.016;2023-06-14T08:33:37;4.78;;;2.15;;
29712;SDS011;16623;53.632;10.016;2023-06-14T08:36:04;8.30;;;2.35;;
29712;SDS011;16623;53.632;10.016;2023-06-14T08:38:29;6.35;;;3.17;;
29712;SDS011;16623;53.632;10.016;2023-06-14T08:40:57;7.82;;;2.50;;
29712;SDS011;16623;53.632;10.016;2023-06-14T08:43:23;13.40;;;3.10;;
29712;SDS011;16623;53.632;10.016;2023-06-14T08:45:48;3.88;;;2.20;;
29712;SDS011;16623;53.632;10.016;2023-06-14T08:48:22;4.70;;;2.78;;
29712;SDS011;16623;53.632;10.016;2023-06-14T08:50:53;6.28;;;2.70;;
29712;SDS011;16623;53.632;10.016;2023-06-14T08:53:26;7.18;;;3.05;;
29712;SDS011;16623;53.632;10.016;2023-06-14T08:55:57;7.00;;;2.78;;
29712;SDS011;16623;53.632;10.016;2023-06-14T08:58:26;8.32;;;2.78;;
29712;SDS011;16623;53.632;10.016;2023-06-14T09:00:56;4.68;;;2.90;;
29712;SDS011;16623;53.632;10.016;2023-06-14T09:03:22;8.50;;;2.70;;
29712;SDS011;16623;53.632;10.016;2023-06-14T09:05:53;6.25;;;2.70;;
29712;SDS011;16623;53.632;10.016;2023-06-14T09:08:19;3.58;;;2.47;;
29712;SDS011;16623;53.632;10.016;2023-06-14T09:10:47;7.35;;;3.05;;
29712;SDS011;16623;53.632;10.016;2023-06-14T09:13:13;5.30;;;2.50;;
29712;SDS011;16623;53.632;10.016;2023-06-14T09:15:38;5.57;;;3.05;;
29712;SDS011;16623;53.632;10.016;2023-06-14T09:18:04;5.75;;;2.97;;
29712;SDS011;16623;53.632;10.016;2023-06-14T09:20:31;4.60;;;2.47;;
29712;SDS011;16623;53.632;10.016;2023-06-14T09:22:57;9.30;;;2.97;;
29712;SDS011;16623;53.632;10.016;2023-06-14T09:25:23;11.35;;;2.67;;
29712;SDS011;16623;53.632;10.016;2023-06-14T09:27:51;6.72;;;2.42;;
29712;SDS011;16623;53.632;10.016;2023-06-14T09:30:16;12.35;;;3.22;;
29712;SDS011;16623;53.632;10.016;2023-06-14T09:32:45;8.48;;;3.17;;
29712;SDS011;16623;53.632;10.016;2023-06-14T09:35:11;8.05;;;2.55;;
29712;SDS011;16623;53.632;10.016;2023-06-14T09:37:37;6.28;;;2.60;;
29712;SDS011;16623;53.632;10.016;2023-06-14T09:40:03;8.60;;;2.60;;
29712;SDS011;16623;53.632;10.016;2023-06-14T09:42:29;5.13;;;3.35;;
29712;SDS011;16623;53.632;10.016;2023-06-14T09:44:56;4.28;;;2.42;;
29712;SDS011;16623;53.632;10.016;2023-06-14T09:47:22;4.43;;;3.03;;
29712;SDS011;16623;53.632;10.016;2023-06-14T09:49:49;6.95;;;2.75;;
29712;SDS011;16623;53.632;10.016;2023-06-14T09:52:19;5.63;;;2.20;;
29712;SDS011;16623;53.632;10.016;2023-06-14T09:54:46;7.00;;;3.10;;
29712;SDS011;16623;53.632;10.016;2023-06-14T09:57:14;7.13;;;2.90;;
29712;SDS011;16623;53.632;10.016;2023-06-14T09:59:41;10.98;;;2.65;;
29712;SDS011;16623;53.632;10.016;2023-06-14T10:02:12;2.88;;;2.35;;
29712;SDS011;16623;53.632;10.016;2023-06-14T10:04:53;8.52;;;2.67;;
29712;SDS011;16623;53.632;10.016;2023-06-14T10:07:23;4.20;;;2.75;;
29712;SDS011;16623;53.632;10.016;2023-06-14T10:10:00;6.82;;;2.80;;
29712;SDS011;16623;53.632;10.016;2023-06-14T10:12:26;7.95;;;3.08;;
29712;SDS011;16623;53.632;10.016;2023-06-14T10:14:52;6.72;;;2.85;;
29712;SDS011;16623;53.632;10.016;2023-06-14T10:17:20;5.75;;;2.95;;
29712;SDS011;16623;53.632;10.016;2023-06-14T10:19:54;6.93;;;2.80;;
29712;SDS011;16623;53.632;10.016;2023-06-14T10:22:47;7.82;;;3.00;;
29712;SDS011;16623;53.632;10.016;2023-06-14T10:25:28;7.07;;;2.78;;
29712;SDS011;16623;53.632;10.016;2023-06-14T10:30:57;5.20;;;3.17;;
29712;SDS011;16623;53.632;10.016;2023-06-14T10:33:31;7.70;;;3.03;;
29712;SDS011;16623;53.632;10.016;2023-06-14T10:36:09;5.90;;;2.60;;
29712;SDS011;16623;53.632;10.016;2023-06-14T10:38:58;8.63;;;2.90;;
29712;SDS011;16623;53.632;10.016;2023-06-14T10:41:28;3.40;;;2.40;;
29712;SDS011;16623;53.632;10.016;2023-06-14T10:47:00;3.88;;;2.80;;
29712;SDS011;16623;53.632;10.016;2023-06-14T10:49:38;6.43;;;2.83;;
29712;SDS011;16623;53.632;10.016;2023-06-14T10:52:16;9.70;;;2.67;;
29712;SDS011;16623;53.632;10.016;2023-06-14T10:54:58;7.45;;;2.97;;
29712;SDS011;16623;53.632;10.016;2023-06-14T10:57:24;6.53;;;2.75;;
29712;SDS011;16623;53.632;10.016;2023-06-14T10:59:50;6.07;;;2.60;;
29712;SDS011;16623;53.632;10.016;2023-06-14T11:04:49;9.45;;;3.10;;
29712;SDS011;16623;53.632;10.016;2023-06-14T11:10:40;5.05;;;2.70;;
29712;SDS011;16623;53.632;10.016;2023-06-14T11:13:06;3.40;;;2.60;;
29712;SDS011;16623;53.632;10.016;2023-06-14T11:15:33;3.53;;;2.30;;
29712;SDS011;16623;53.632;10.016;2023-06-14T11:18:01;4.20;;;2.60;;
29712;SDS011;16623;53.632;10.016;2023-06-14T11:20:29;7.22;;;2.83;;
29712;SDS011;16623;53.632;10.016;2023-06-14T11:22:56;6.30;;;2.78;;
29712;SDS011;16623;53.632;10.016;2023-06-14T11:25:22;7.68;;;2.38;;
29712;SDS011;16623;53.632;10.016;2023-06-14T11:27:49;8.07;;;2.30;;
29712;SDS011;16623;53.632;10.016;2023-06-14T11:30:15;8.00;;;2.40;;
29712;SDS011;16623;53.632;10.016;2023-06-14T11:32:41;6.30;;;2.85;;
29712;SDS011;16623;53.632;10.016;2023-06-14T11:35:07;5.78;;;2.50;;
29712;SDS011;16623;53.632;10.016;2023-06-14T11:37:35;13.32;;;3.53;;
29712;SDS011;16623;53.632;10.016;2023-06-14T11:40:02;5.57;;;3.40;;
29712;SDS011;16623;53.632;10.016;2023-06-14T11:42:36;7.63;;;2.80;;
29712;SDS011;16623;53.632;10.016;2023-06-14T11:45:02;8.05;;;2.75;;
29712;SDS011;16623;53.632;10.016;2023-06-14T11:47:33;12.63;;;3.05;;
29712;SDS011;16623;53.632;10.016;2023-06-14T11:49:59;6.55;;;2.80;;
29712;SDS011;16623;53.632;10.016;2023-06-14T11:52:25;5.45;;;2.35;;
29712;SDS011;16623;53.632;10.016;2023-06-14T11:54:51;5.60;;;2.70;;
29712;SDS011;16623;53.632;10.016;2023-06-14T11:57:18;4.43;;;2.80;;
29712;SDS011;16623;53.632;10.016;2023-06-14T11:59:44;6.40;;;2.63;;
29712;SDS011;16623;53.632;10.016;2023-06-14T12:02:14;6.30;;;2.80;;
29712;SDS011;16623;53.632;10.016;2023-06-14T12:04:41;5.55;;;3.67;;
29712;SDS011;16623;53.632;10.016;2023-06-14T12:07:17;6.95;;;2.65;;
29712;SDS011;16623;53.632;10.016;2023-06-14T12:12:23;12.68;;;3.05;;
29712;SDS011;16623;53.632;10.016;2023-06-14T12:14:52;11.57;;;3.25;;
29712;SDS011;16623;53.632;10.016;2023-06-14T12:17:18;8.63;;;2.95;;
29712;SDS011;16623;53.632;10.016;2023-06-14T12:19:45;5.35;;;2.72;;
29712;SDS011;16623;53.632;10.016;2023-06-14T12:22:11;4.78;;;2.60;;
29712;SDS011;16623;53.632;10.016;2023-06-14T12:24:38;4.63;;;3.25;;
29712;SDS011;16623;53.632;10.016;2023-06-14T12:27:04;10.07;;;2.78;;
29712;SDS011;16623;53.632;10.016;2023-06-14T12:29:31;7.82;;;3.05;;
29712;SDS011;16623;53.632;10.016;2023-06-14T12:31:57;7.10;;;2.40;;
29712;SDS011;16623;53.632;10.016;2023-06-14T12:34:23;5.95;;;2.75;;
29712;SDS011;16623;53.632;10.016;2023-06-14T12:36:50;4.30;;;2.50;;
29712;SDS011;16623;53.632;10.016;2023-06-14T12:39:15;6.57;;;3.03;;
29712;SDS011;16623;53.632;10.016;2023-06-14T12:41:41;6.88;;;2.50;;
29712;SDS011;16623;53.632;10.016;2023-06-14T12:44:07;3.95;;;2.28;;
29712;SDS011;16623;53.632;10.016;2023-06-14T12:46:33;6.03;;;2.80;;
29712;SDS011;16623;53.632;10.016;2023-06-14T12:48:59;8.13;;;2.58;;
29712;SDS011;16623;53.632;10.016;2023-06-14T12:51:25;5.43;;;2.63;;
29712;SDS011;16623;53.632;10.016;2023-06-14T12:53:52;3.95;;;2.35;;
29712;SDS011;16623;53.632;10.016;2023-06-14T12:56:17;7.15;;;3.10;;
29712;SDS011;16623;53.632;10.016;2023-06-14T12:58:43;5.05;;;2.92;;
29712;SDS011;16623;53.632;10.016;2023-06-14T13:01:09;6.50;;;2.83;;
29712;SDS011;16623;53.632;10.016;2023-06-14T13:03:34;7.15;;;2.47;;
29712;SDS011;16623;53.632;10.016;2023-06-14T13:06:00;4.75;;;2.88;;
29712;SDS011;16623;53.632;10.016;2023-06-14T13:08:27;8.85;;;2.90;;
29712;SDS011;16623;53.632;10.016;2023-06-14T13:10:53;6.35;;;2.67;;
29712;SDS011;16623;53.632;10.016;2023-06-14T13:13:20;4.88;;;2.30;;
29712;SDS011;16623;53.632;10.016;2023-06-14T13:15:46;11.10;;;3.40;;
29712;SDS011;16623;53.632;10.016;2023-06-14T13:18:12;6.72;;;2.78;;
29712;SDS011;16623;53.632;10.016;2023-06-14T13:20:41;6.05;;;2.58;;
29712;SDS011;16623;53.632;10.016;2023-06-14T13:23:07;5.40;;;2.80;;
29712;SDS011;16623;53.632;10.016;2023-06-14T13:25:33;7.00;;;2.95;;
29712;SDS011;16623;53.632;10.016;2023-06-14T13:27:59;6.25;;;2.78;;
29712;SDS011;16623;53.632;10.016;2023-06-14T13:30:25;3.75;;;2.60;;
29712;SDS011;16623;53.632;10.016;2023-06-14T13:32:51;3.80;;;2.42;;
29712;SDS011;16623;53.632;10.016;2023-06-14T13:35:17;5.65;;;2.33;;
29712;SDS011;16623;53.632;10.016;2023-06-14T13:37:43;5.20;;;2.17;;
29712;SDS011;16623;53.632;10.016;2023-06-14T13:40:10;7.85;;;2.28;;
29712;SDS011;16623;53.632;10.016;2023-06-14T13:42:36;6.43;;;2.40;;
29712;SDS011;16623;53.632;10.016;2023-06-14T13:45:02;3.78;;;2.25;;
29712;SDS011;16623;53.632;10.016;2023-06-14T13:47:28;6.80;;;2.40;;
29712;SDS011;16623;53.632;10.016;2023-06-14T13:49:54;8.10;;;2.67;;
29712;SDS011;16623;53.632;10.016;2023-06-14T13:52:20;3.45;;;2.22;;
29712;SDS011;16623;53.632;10.016;2023-06-14T13:54:46;12.13;;;3.08;;
29712;SDS011;16623;53.632;10.016;2023-06-14T13:57:12;5.07;;;2.60;;
29712;SDS011;16623;53.632;10.016;2023-06-14T13:59:40;3.78;;;2.60;;
29712;SDS011;16623;53.632;10.016;2023-06-14T14:02:09;10.25;;;2.55;;
29712;SDS011;16623;53.632;10.016;2023-06-14T14:04:37;7.53;;;2.67;;
29712;SDS011;16623;53.632;10.016;2023-06-14T14:07:03;7.88;;;2.55;;
29712;SDS011;16623;53.632;10.016;2023-06-14T14:09:30;11.02;;;2.35;;
29712;SDS011;16623;53.632;10.016;2023-06-14T14:12:00;4.18;;;2.65;;
29712;SDS011;16623;53.632;10.016;2023-06-14T14:14:27;6.38;;;2.47;;
29712;SDS011;16623;53.632;10.016;2023-06-14T14:16:53;4.93;;;2.65;;
29712;SDS011;16623;53.632;10.016;2023-06-14T14:19:20;4.78;;;2.55;;
29712;SDS011;16623;53.632;10.016;2023-06-14T14:21:46;7.45;;;2.65;;
29712;SDS011;16623;53.632;10.016;2023-06-14T14:24:12;7.13;;;2.22;;
29712;SDS011;16623;53.632;10.016;2023-06-14T14:26:38;4.85;;;2.50;;
29712;SDS011;16623;53.632;10.016;2023-06-14T14:29:03;6.35;;;2.72;;
29712;SDS011;16623;53.632;10.016;2023-06-14T14:31:31;5.57;;;2.60;;
29712;SDS011;16623;53.632;10.016;2023-06-14T14:33:58;6.03;;;2.45;;
29712;SDS011;16623;53.632;10.016;2023-06-14T14:36:23;4.25;;;2.50;;
29712;SDS011;16623;53.632;10.016;2023-06-14T14:38:50;8.60;;;2.42;;
29712;SDS011;16623;53.632;10.016;2023-06-14T14:41:18;2.75;;;2.00;;
29712;SDS011;16623;53.632;10.016;2023-06-14T14:43:44;5.95;;;2.25;;
29712;SDS011;16623;53.632;10.016;2023-06-14T14:46:10;9.82;;;2.03;;
29712;SDS011;16623;53.632;10.016;2023-06-14T14:48:36;6.93;;;2.55;;
29712;SDS011;16623;53.632;10.016;2023-06-14T14:51:04;8.05;;;2.55;;
29712;SDS011;16623;53.632;10.016;2023-06-14T14:53:30;8.30;;;2.95;;